createdAt,value
2022-11-14T00:01:15.953Z,86.73
2022-11-14T00:03:43.899Z,87.13
2022-11-14T00:06:12.942Z,87.09
2022-11-14T00:08:40.814Z,86.11
2022-11-14T00:11:10.653Z,85.92
2022-11-14T00:13:38.482Z,85.39
2022-11-14T00:16:06.527Z,85.92
2022-11-14T00:18:34.643Z,85.43
2022-11-14T00:21:02.495Z,85.51
2022-11-14T00:23:30.359Z,85.53
2022-11-14T00:25:58.401Z,85.31
2022-11-14T00:28:27.876Z,85.02
2022-11-14T00:30:56.069Z,85.25
2022-11-14T00:33:24.083Z,85.30
2022-11-14T00:35:53.879Z,85.19
2022-11-14T00:38:22.136Z,85.60
2022-11-14T00:40:50.143Z,86.13
2022-11-14T00:43:18.067Z,86.76
2022-11-14T00:45:48.294Z,86.72
2022-11-14T00:48:16.909Z,87.24
2022-11-14T00:50:45.289Z,87.06
2022-11-14T00:53:13.382Z,87.39
2022-11-14T00:55:41.424Z,86.89
2022-11-14T00:58:09.462Z,87.39
2022-11-14T01:00:37.478Z,87.49
2022-11-14T01:03:06.822Z,88.41
2022-11-14T01:05:34.637Z,88.06
2022-11-14T01:08:02.552Z,87.90
2022-11-14T01:10:30.665Z,88.42
2022-11-14T01:12:58.544Z,88.03
2022-11-14T01:15:26.517Z,87.85
2022-11-14T01:17:54.489Z,87.11
2022-11-14T01:20:23.953Z,86.48
2022-11-14T01:22:51.799Z,87.32
2022-11-14T01:25:19.874Z,87.25
2022-11-14T01:27:47.791Z,86.67
2022-11-14T01:30:15.770Z,86.48
2022-11-14T01:32:43.814Z,85.90
2022-11-14T01:35:11.733Z,86.27
2022-11-14T01:37:41.080Z,86.68
2022-11-14T01:40:10.249Z,86.78
2022-11-14T01:42:38.076Z,86.84
2022-11-14T01:45:39.361Z,86.52
2022-11-14T01:48:19.193Z,87.14
2022-11-14T01:50:48.294Z,87.40
2022-11-14T01:53:17.834Z,87.34
2022-11-14T01:55:46.416Z,88.84
2022-11-14T01:58:15.761Z,88.84
2022-11-14T02:00:44.307Z,88.71
2022-11-14T02:03:14.726Z,88.85
2022-11-14T02:05:45.427Z,88.38
2022-11-14T02:08:15.953Z,88.85
2022-11-14T02:10:45.184Z,88.86
2022-11-14T02:13:13.054Z,89.05
2022-11-14T02:15:41.701Z,89.06
2022-11-14T02:18:09.611Z,88.64
2022-11-14T02:20:43.411Z,89.93
2022-11-14T02:23:11.993Z,88.57
2022-11-14T02:25:40.614Z,88.89
2022-11-14T02:28:10.604Z,88.35
2022-11-14T02:30:38.756Z,87.87
2022-11-14T02:33:11.021Z,88.18
2022-11-14T02:35:40.938Z,87.78
2022-11-14T02:38:08.859Z,88.53
2022-11-14T02:40:36.787Z,87.55
2022-11-14T02:43:04.843Z,87.34
2022-11-14T02:45:32.694Z,88.01
2022-11-14T02:48:00.686Z,87.96
2022-11-14T02:50:28.853Z,88.53
2022-11-14T02:52:58.047Z,88.22
2022-11-14T02:55:26.011Z,87.70
2022-11-14T02:57:53.985Z,87.32
2022-11-14T03:00:21.936Z,87.08
2022-11-14T03:02:49.830Z,87.23
2022-11-14T03:05:18.080Z,86.27
2022-11-14T03:07:45.904Z,87.21
2022-11-14T03:10:15.469Z,86.47
2022-11-14T03:12:43.428Z,87.24
2022-11-14T03:15:12.298Z,87.07
2022-11-14T03:17:40.360Z,87.84
2022-11-14T03:20:09.808Z,87.40
2022-11-14T03:22:37.691Z,87.21
2022-11-14T03:25:06.514Z,86.09
2022-11-14T03:27:35.987Z,86.76
2022-11-14T03:30:03.978Z,85.77
2022-11-14T03:32:31.830Z,86.64
2022-11-14T03:35:00.057Z,86.70
2022-11-14T03:37:27.922Z,87.11
2022-11-14T03:39:55.759Z,87.67
2022-11-14T03:42:23.782Z,87.34
2022-11-14T03:44:53.016Z,87.91
2022-11-14T03:47:20.871Z,88.46
2022-11-14T03:49:48.820Z,87.90
2022-11-14T03:52:16.713Z,88.18
2022-11-14T03:54:44.536Z,88.06
2022-11-14T03:57:12.528Z,87.67
2022-11-14T03:59:40.360Z,88.71
2022-11-14T04:02:09.548Z,87.87
2022-11-14T04:04:37.556Z,87.10
2022-11-14T04:07:06.467Z,87.64
2022-11-14T04:09:34.376Z,87.93
2022-11-14T04:12:02.334Z,87.25
2022-11-14T04:14:30.131Z,87.17
2022-11-14T04:16:57.985Z,87.62
2022-11-14T04:19:27.230Z,87.03
2022-11-14T04:21:55.117Z,87.32
2022-11-14T04:24:22.909Z,87.57
2022-11-14T04:26:50.777Z,88.29
2022-11-14T04:29:18.615Z,88.20
2022-11-14T04:31:46.434Z,88.23
2022-11-14T04:34:14.331Z,88.33
2022-11-14T04:36:43.571Z,87.88
2022-11-14T04:39:11.450Z,87.97
2022-11-14T04:41:39.496Z,87.35
2022-11-14T04:44:07.500Z,86.44
2022-11-14T04:46:35.324Z,87.65
2022-11-14T04:49:03.606Z,88.20
2022-11-14T04:51:31.473Z,87.67
2022-11-14T04:54:00.684Z,87.79
2022-11-14T04:56:29.365Z,87.74
2022-11-14T04:58:57.208Z,87.95
2022-11-14T05:01:25.162Z,88.14
2022-11-14T05:03:53.134Z,87.91
2022-11-14T05:06:21.003Z,87.66
2022-11-14T05:08:49.560Z,88.30
2022-11-14T05:11:23.183Z,88.30
2022-11-14T05:13:54.537Z,87.66
2022-11-14T05:16:22.555Z,87.23
2022-11-14T05:18:50.475Z,87.04
2022-11-14T05:21:18.309Z,87.26
2022-11-14T05:23:46.306Z,88.25
2022-11-14T05:26:17.048Z,88.46
2022-11-14T05:28:46.643Z,87.59
2022-11-14T05:31:17.853Z,87.90
2022-11-14T05:33:46.788Z,87.58
2022-11-14T05:36:16.974Z,87.77
2022-11-14T05:38:45.115Z,87.48
2022-11-14T05:41:15.204Z,87.36
2022-11-14T05:43:43.587Z,87.79
2022-11-14T05:46:16.035Z,86.97
2022-11-14T05:48:44.655Z,87.13
2022-11-14T05:51:14.116Z,87.78
2022-11-14T05:53:42.112Z,87.08
2022-11-14T05:56:13.056Z,87.20
2022-11-14T05:58:41.255Z,87.55
2022-11-14T06:01:12.149Z,88.74
2022-11-14T06:03:43.248Z,88.31
2022-11-14T06:06:13.700Z,89.44
2022-11-14T06:08:42.514Z,89.89
2022-11-14T06:11:11.912Z,89.72
2022-11-14T06:13:40.170Z,89.67
2022-11-14T06:16:11.181Z,89.50
2022-11-14T06:18:39.610Z,89.04
2022-11-14T06:21:12.498Z,89.08
2022-11-14T06:23:40.859Z,89.81
2022-11-14T06:26:13.955Z,89.75
2022-11-14T06:28:41.842Z,89.00
2022-11-14T06:31:09.668Z,89.10
2022-11-14T06:33:38.430Z,89.61
2022-11-14T06:36:09.809Z,89.51
2022-11-14T06:38:39.528Z,89.99
2022-11-14T06:41:08.963Z,90.09
2022-11-14T06:43:38.127Z,89.94
2022-11-14T06:46:06.792Z,89.52
2022-11-14T06:48:35.362Z,89.95
2022-11-14T06:51:05.526Z,88.75
2022-11-14T06:53:36.927Z,88.27
2022-11-14T06:56:06.928Z,88.66
2022-11-14T06:58:38.985Z,88.47
2022-11-14T07:01:08.535Z,89.58
2022-11-14T07:03:36.349Z,89.41
2022-11-14T07:06:04.949Z,89.81
2022-11-14T07:08:35.146Z,88.82
2022-11-14T07:11:04.056Z,89.50
2022-11-14T07:13:32.566Z,89.34
2022-11-14T07:16:00.966Z,89.88
2022-11-14T07:18:31.414Z,89.99
2022-11-14T07:21:00.492Z,89.74
2022-11-14T07:23:28.887Z,89.91
2022-11-14T07:26:02.030Z,90.60
2022-11-14T07:28:30.457Z,89.84
2022-11-14T07:30:58.589Z,89.46
2022-11-14T07:33:26.446Z,88.67
2022-11-14T07:35:54.302Z,88.65
2022-11-14T07:38:24.488Z,88.63
2022-11-14T07:40:59.551Z,89.11
2022-11-14T07:43:29.764Z,88.67
2022-11-14T07:46:00.824Z,89.82
2022-11-14T07:48:29.145Z,89.87
2022-11-14T07:51:00.494Z,90.10
2022-11-14T07:53:28.706Z,90.38
2022-11-14T07:55:56.619Z,90.24
2022-11-14T07:58:25.124Z,88.65
2022-11-14T08:00:54.539Z,87.61
2022-11-14T08:03:22.542Z,87.46
2022-11-14T08:05:50.420Z,86.59
2022-11-14T08:08:18.390Z,86.25
2022-11-14T08:10:46.211Z,87.47
2022-11-14T08:16:12.326Z,87.24
2022-11-14T08:18:42.540Z,87.31
2022-11-14T08:21:10.583Z,86.75
2022-11-14T08:23:38.814Z,87.68
2022-11-14T08:26:07.113Z,88.41
2022-11-14T08:28:35.160Z,88.07
2022-11-14T08:31:03.560Z,88.21
2022-11-14T08:33:33.489Z,88.32
2022-11-14T08:36:02.636Z,87.87
2022-11-14T08:38:32.793Z,88.05
2022-11-14T08:41:01.402Z,88.77
2022-11-14T08:43:29.240Z,88.47
2022-11-14T08:46:01.570Z,88.91
2022-11-14T08:48:30.933Z,88.66
2022-11-14T08:51:04.595Z,86.65
2022-11-14T08:53:32.966Z,86.61
2022-11-14T08:56:00.825Z,87.65
2022-11-14T08:58:31.182Z,87.63
2022-11-14T09:01:03.274Z,88.13
2022-11-14T09:03:37.094Z,87.36
2022-11-14T09:06:07.479Z,87.17
2022-11-14T09:08:35.415Z,87.28
2022-11-14T09:11:09.950Z,86.91
2022-11-14T09:13:38.283Z,87.00
2022-11-14T09:16:06.984Z,87.48
2022-11-14T09:18:35.031Z,87.81
2022-11-14T09:21:03.744Z,87.74
2022-11-14T09:23:33.565Z,87.83
2022-11-14T09:26:06.309Z,87.16
2022-11-14T09:28:34.984Z,88.02
2022-11-14T09:31:03.177Z,88.72
2022-11-14T09:33:31.540Z,87.87
2022-11-14T09:35:59.974Z,87.62
2022-11-14T09:38:28.341Z,87.54
2022-11-14T09:41:11.707Z,87.25
2022-11-14T09:43:58.136Z,87.01
2022-11-14T09:46:32.945Z,87.95
2022-11-14T09:49:01.157Z,87.96
2022-11-14T09:51:34.299Z,86.95
2022-11-14T09:54:12.670Z,86.47
2022-11-14T09:56:42.101Z,85.10
2022-11-14T09:59:11.929Z,85.00
2022-11-14T10:01:50.724Z,84.47
2022-11-14T10:04:27.806Z,83.94
2022-11-14T10:07:07.923Z,84.22
2022-11-14T10:09:49.647Z,84.42
2022-11-14T10:12:23.876Z,84.19
2022-11-14T10:15:11.884Z,84.47
2022-11-14T10:18:16.867Z,83.88
2022-11-14T10:20:50.253Z,84.33
2022-11-14T10:23:31.511Z,83.23
2022-11-14T10:26:10.308Z,83.00
2022-11-14T10:28:54.046Z,82.41
2022-11-14T10:31:31.383Z,82.90
2022-11-14T10:34:06.999Z,82.25
2022-11-14T10:36:48.358Z,81.47
2022-11-14T10:39:21.535Z,82.05
2022-11-14T10:42:00.966Z,82.12
2022-11-14T10:44:38.101Z,81.81
2022-11-14T10:47:12.606Z,81.05
2022-11-14T10:49:41.134Z,80.45
2022-11-14T10:52:15.933Z,79.85
2022-11-14T10:54:47.457Z,79.67
2022-11-14T10:57:17.586Z,79.29
2022-11-14T10:59:47.418Z,79.42
2022-11-14T11:02:15.901Z,79.24
2022-11-14T11:04:46.307Z,78.64
2022-11-14T11:07:41.823Z,77.18
2022-11-14T11:10:39.545Z,77.31
2022-11-14T11:13:07.440Z,78.00
2022-11-14T11:15:43.573Z,77.56
2022-11-14T11:18:27.162Z,77.65
2022-11-14T11:21:07.958Z,78.08
2022-11-14T11:23:36.343Z,77.97
2022-11-14T11:26:07.960Z,77.72
2022-11-14T11:28:37.744Z,78.54
2022-11-14T11:31:08.462Z,78.07
2022-11-14T11:33:37.938Z,78.48
2022-11-14T11:36:12.721Z,77.59
2022-11-14T11:38:41.854Z,76.41
2022-11-14T11:42:02.331Z,77.41
2022-11-14T11:44:17.102Z,77.44
2022-11-14T11:46:53.505Z,77.73
2022-11-14T11:49:32.249Z,77.65
2022-11-14T11:52:07.039Z,77.58
2022-11-14T11:54:52.623Z,77.51
2022-11-14T11:57:25.606Z,77.70
2022-11-14T11:59:59.042Z,78.15
2022-11-14T12:02:28.930Z,78.09
2022-11-14T12:04:59.640Z,78.23
2022-11-14T12:07:39.682Z,78.20
2022-11-14T12:10:16.522Z,78.12
2022-11-14T12:13:11.141Z,77.66
2022-11-14T12:15:49.693Z,77.89
2022-11-14T12:18:35.869Z,77.22
2022-11-14T12:21:19.809Z,77.42
2022-11-14T12:24:18.715Z,76.45
2022-11-14T12:26:58.746Z,76.88
2022-11-14T12:29:49.053Z,77.16
2022-11-14T12:32:20.834Z,76.63
2022-11-14T12:34:51.252Z,77.17
2022-11-14T12:37:24.486Z,77.40
2022-11-14T12:40:01.459Z,77.36
2022-11-14T12:42:29.719Z,76.91
2022-11-14T12:44:57.596Z,76.86
2022-11-14T12:47:27.987Z,78.11
2022-11-14T12:50:36.447Z,77.11
2022-11-14T12:53:04.548Z,78.05
2022-11-14T12:55:55.786Z,77.55
2022-11-14T12:58:51.226Z,77.49
2022-11-14T13:01:35.020Z,77.51
2022-11-14T13:04:26.474Z,77.02
2022-11-14T13:07:32.788Z,77.94
2022-11-14T13:10:27.717Z,79.01
2022-11-14T13:13:25.631Z,77.89
2022-11-14T13:16:12.938Z,77.34
2022-11-14T13:19:11.222Z,77.09
2022-11-14T13:21:48.719Z,76.77
2022-11-14T13:24:19.172Z,76.32
2022-11-14T13:26:49.587Z,76.54
2022-11-14T13:29:50.576Z,76.82
2022-11-14T13:33:06.183Z,77.13
2022-11-14T13:35:44.114Z,77.52
2022-11-14T13:38:50.790Z,77.75
2022-11-14T13:41:55.066Z,77.81
2022-11-14T13:44:59.663Z,78.31
2022-11-14T13:47:46.757Z,78.25
2022-11-14T13:50:17.272Z,77.97
2022-11-14T13:52:46.783Z,78.06
2022-11-14T13:55:29.277Z,77.79
2022-11-14T13:58:10.120Z,77.90
2022-11-14T14:01:06.796Z,77.91
2022-11-14T14:03:50.515Z,78.27
2022-11-14T14:06:33.344Z,78.78
2022-11-14T14:09:20.850Z,77.88
2022-11-14T14:12:01.322Z,78.26
2022-11-14T14:14:44.789Z,78.49
2022-11-14T14:17:18.997Z,78.43
2022-11-14T14:20:02.890Z,78.61
2022-11-14T14:22:39.433Z,78.38
2022-11-14T14:25:20.020Z,78.47
2022-11-14T14:27:56.800Z,77.99
2022-11-14T14:30:24.773Z,78.54
2022-11-14T14:33:17.779Z,78.60
2022-11-14T14:35:53.173Z,78.25
2022-11-14T14:38:26.092Z,78.50
2022-11-14T14:40:56.739Z,78.35
2022-11-14T14:43:30.181Z,78.51
2022-11-14T14:45:58.555Z,78.14
2022-11-14T14:48:29.376Z,78.23
2022-11-14T14:51:00.316Z,78.10
2022-11-14T14:53:30.997Z,78.41
2022-11-14T14:56:00.523Z,78.23
2022-11-14T14:58:30.867Z,78.55
2022-11-14T15:01:01.581Z,78.74
2022-11-14T15:03:36.719Z,79.01
2022-11-14T15:06:13.226Z,79.85
2022-11-14T15:08:41.332Z,80.14
2022-11-14T15:11:09.595Z,79.86
2022-11-14T15:13:38.962Z,80.07
2022-11-14T15:16:09.650Z,80.10
2022-11-14T15:18:38.733Z,80.22
2022-11-14T15:21:15.594Z,80.46
2022-11-14T15:23:47.192Z,80.24
2022-11-14T15:26:18.368Z,80.93
2022-11-14T15:28:46.611Z,80.86
2022-11-14T15:31:21.140Z,81.34
2022-11-14T15:34:03.326Z,81.49
2022-11-14T15:36:32.692Z,81.36
2022-11-14T15:39:04.099Z,81.36
2022-11-14T15:41:32.597Z,81.26
2022-11-14T15:44:05.462Z,81.56
2022-11-14T15:46:44.835Z,82.43
2022-11-14T15:49:22.028Z,82.06
2022-11-14T15:51:55.486Z,81.69
2022-11-14T15:54:28.760Z,82.29
2022-11-14T15:56:58.693Z,82.55
2022-11-14T15:59:27.883Z,82.90
2022-11-14T16:02:00.271Z,82.38
2022-11-14T16:04:33.717Z,82.66
2022-11-14T16:07:03.245Z,82.98
2022-11-14T16:09:31.108Z,83.29
2022-11-14T16:11:59.314Z,83.11
2022-11-14T16:14:27.508Z,83.21
2022-11-14T16:16:55.658Z,83.65
2022-11-14T16:19:23.842Z,83.78
2022-11-14T16:21:52.032Z,83.58
2022-11-14T16:24:22.917Z,83.78
2022-11-14T16:26:51.764Z,84.02
2022-11-14T16:29:21.487Z,83.84
2022-11-14T16:31:51.975Z,84.68
2022-11-14T16:34:23.909Z,84.39
2022-11-14T16:36:59.481Z,84.46
2022-11-14T16:39:29.373Z,84.60
2022-11-14T16:42:03.143Z,84.49
2022-11-14T16:44:34.588Z,84.53
2022-11-14T16:47:07.206Z,84.85
2022-11-14T16:49:35.171Z,85.10
2022-11-14T16:52:07.173Z,84.88
2022-11-14T16:54:41.226Z,85.55
2022-11-14T16:57:09.437Z,85.57
2022-11-14T16:59:39.211Z,86.22
2022-11-14T17:02:07.450Z,85.77
2022-11-14T17:04:35.581Z,85.92
2022-11-14T17:07:03.515Z,86.15
2022-11-14T17:09:31.427Z,85.49
2022-11-14T17:12:00.965Z,85.98
2022-11-14T17:14:29.010Z,85.84
2022-11-14T17:17:04.685Z,86.63
2022-11-14T17:19:32.727Z,86.42
2022-11-14T17:22:00.764Z,86.81
2022-11-14T17:24:31.717Z,86.82
2022-11-14T17:27:03.352Z,86.80
2022-11-14T17:29:31.479Z,87.21
2022-11-14T17:31:59.550Z,87.71
2022-11-14T17:34:27.640Z,87.44
2022-11-14T17:36:55.680Z,87.17
2022-11-14T17:39:23.729Z,87.24
2022-11-14T17:41:51.726Z,86.98
2022-11-14T17:44:21.164Z,87.51
2022-11-14T17:46:49.079Z,88.04
2022-11-14T17:49:17.096Z,88.49
2022-11-14T17:51:45.196Z,88.72
2022-11-14T17:54:13.192Z,88.24
2022-11-14T17:56:48.567Z,88.38
2022-11-14T17:59:20.577Z,88.34
2022-11-14T18:01:48.722Z,88.86
2022-11-14T18:04:16.801Z,88.62
2022-11-14T18:06:44.655Z,88.89
2022-11-14T18:09:14.847Z,88.47
2022-11-14T18:11:42.742Z,88.03
2022-11-14T18:14:10.747Z,87.71
2022-11-14T18:17:10.436Z,88.55
2022-11-14T18:19:28.704Z,88.51
2022-11-14T18:21:56.859Z,88.56
2022-11-14T18:24:24.946Z,88.69
2022-11-14T18:26:53.496Z,88.75
2022-11-14T18:29:21.544Z,88.34
2022-11-14T18:31:51.004Z,88.35
2022-11-14T18:34:19.723Z,88.95
2022-11-14T18:36:47.731Z,88.98
2022-11-14T18:39:15.613Z,89.78
2022-11-14T18:41:43.441Z,89.66
2022-11-14T18:44:11.439Z,89.63
2022-11-14T18:46:39.671Z,89.71
2022-11-14T18:49:09.114Z,89.39
2022-11-14T18:51:42.328Z,89.50
2022-11-14T18:54:12.794Z,89.81
2022-11-14T18:56:41.339Z,89.63
2022-11-14T18:59:10.128Z,88.55
2022-11-14T19:01:38.250Z,89.30
2022-11-14T19:04:09.777Z,89.11
2022-11-14T19:06:39.362Z,89.52
2022-11-14T19:09:11.371Z,89.19
2022-11-14T19:11:56.945Z,88.55
2022-11-14T19:14:25.324Z,88.72
2022-11-14T19:16:53.282Z,88.53
2022-11-14T19:19:22.682Z,88.08
2022-11-14T19:21:51.131Z,87.95
2022-11-14T19:24:19.585Z,88.40
2022-11-14T19:26:47.669Z,88.67
2022-11-14T19:29:15.585Z,89.25
2022-11-14T19:31:44.401Z,88.96
2022-11-14T19:34:12.367Z,89.20
2022-11-14T19:39:30.204Z,88.78
2022-11-14T19:41:58.307Z,88.74
2022-11-14T19:44:26.228Z,88.20
2022-11-14T19:46:54.292Z,87.81
2022-11-14T19:49:22.308Z,87.59
2022-11-14T19:51:51.630Z,88.14
2022-11-14T19:54:19.571Z,87.72
2022-11-14T19:56:47.477Z,88.22
2022-11-14T19:59:17.994Z,87.53
2022-11-14T20:01:55.237Z,88.23
2022-11-14T20:04:23.608Z,87.90
2022-11-14T20:06:53.091Z,87.87
2022-11-14T20:09:21.127Z,87.33
2022-11-14T20:11:49.547Z,89.07
2022-11-14T20:14:17.748Z,89.21
2022-11-14T20:16:46.829Z,88.68
2022-11-14T20:19:14.831Z,89.26
2022-11-14T20:21:43.427Z,89.49
2022-11-14T20:24:15.596Z,88.72
2022-11-14T20:26:43.786Z,88.69
2022-11-14T20:29:11.659Z,88.97
2022-11-14T20:31:39.963Z,89.04
2022-11-14T20:34:08.266Z,89.39
2022-11-14T20:37:08.604Z,88.99
2022-11-14T20:39:25.744Z,89.88
2022-11-14T20:41:53.904Z,89.07
2022-11-14T20:44:21.798Z,89.49
2022-11-14T20:46:49.871Z,89.97
2022-11-14T20:49:17.887Z,90.09
2022-11-14T20:51:45.771Z,90.13
2022-11-14T20:54:13.860Z,90.06
2022-11-14T20:56:43.097Z,89.49
2022-11-14T20:59:11.077Z,89.92
2022-11-14T21:01:43.761Z,89.23
2022-11-14T21:04:12.256Z,89.63
2022-11-14T21:06:40.935Z,89.44
2022-11-14T21:09:09.370Z,89.89
2022-11-14T21:11:37.222Z,90.69
2022-11-14T21:14:06.595Z,90.16
2022-11-14T21:16:36.522Z,90.05
2022-11-14T21:19:05.805Z,89.57
2022-11-14T21:21:36.276Z,90.67
2022-11-14T21:24:04.747Z,91.23
2022-11-14T21:26:34.734Z,90.82
2022-11-14T21:29:05.959Z,91.69
2022-11-14T21:31:37.019Z,90.49
2022-11-14T21:34:07.286Z,91.14
2022-11-14T21:36:44.755Z,91.20
2022-11-14T21:39:15.275Z,92.24
2022-11-14T21:41:43.928Z,91.63
2022-11-14T21:44:13.685Z,92.69
2022-11-14T21:46:43.543Z,92.69
2022-11-14T21:49:11.556Z,92.36
2022-11-14T21:51:39.357Z,91.77
2022-11-14T21:54:07.340Z,91.85
2022-11-14T21:56:37.033Z,92.51
2022-11-14T21:59:15.834Z,92.67
2022-11-14T22:02:04.926Z,92.97
2022-11-14T22:04:33.440Z,92.40
2022-11-14T22:07:04.780Z,93.08
2022-11-14T22:09:33.839Z,92.46
2022-11-14T22:12:02.265Z,92.22
2022-11-14T22:14:30.444Z,92.55
2022-11-14T22:16:59.885Z,91.62
2022-11-14T22:19:27.791Z,91.63
2022-11-14T22:21:55.806Z,92.59
2022-11-14T22:24:24.104Z,91.51
2022-11-14T22:26:51.966Z,92.46
2022-11-14T22:29:19.906Z,92.48
2022-11-14T22:31:53.141Z,91.53
2022-11-14T22:34:22.402Z,92.35
2022-11-14T22:36:50.282Z,91.84
2022-11-14T22:39:18.713Z,91.91
2022-11-14T22:41:46.650Z,91.25
2022-11-14T22:44:14.533Z,91.11
2022-11-14T22:46:42.434Z,91.18
2022-11-14T22:49:10.290Z,92.02
2022-11-14T22:51:39.537Z,91.96
2022-11-14T22:54:07.553Z,92.77
2022-11-14T22:56:35.434Z,92.31
2022-11-14T22:59:03.543Z,92.33
2022-11-14T23:01:33.012Z,92.55
2022-11-14T23:04:02.891Z,92.25
2022-11-14T23:06:32.462Z,92.64
2022-11-14T23:09:02.445Z,92.32
2022-11-14T23:11:32.397Z,92.11
2022-11-14T23:14:01.930Z,92.82
2022-11-14T23:16:31.784Z,92.13
2022-11-14T23:19:01.820Z,92.27
2022-11-14T23:21:31.745Z,92.92
2022-11-14T23:24:02.920Z,92.38
2022-11-14T23:26:32.587Z,92.74
2022-11-14T23:29:00.774Z,92.27
2022-11-14T23:31:28.794Z,91.60
2022-11-14T23:33:58.140Z,92.53
2022-11-14T23:36:26.451Z,92.02
2022-11-14T23:38:54.603Z,91.55
2022-11-14T23:41:26.737Z,92.33
2022-11-14T23:43:54.979Z,93.37
2022-11-14T23:46:23.798Z,93.51
2022-11-14T23:48:53.409Z,92.97
2022-11-14T23:51:21.465Z,93.21
2022-11-14T23:53:49.673Z,92.95
2022-11-14T23:56:17.546Z,92.27
2022-11-14T23:58:46.860Z,92.88
